sensor_id;sensor_type;location;lat;lon;timestamp;pressure;altitude;pressure_sealevel;temperature;humidity
12879;BME280;20617;49.476;10.986;2023-05-19T00:01:26;98851.44;;;11.65;100.00
12879;BME280;20617;49.476;10.986;2023-05-19T00:03:35;98856.31;;;11.74;100.00
12879;BME280;20617;49.476;10.986;2023-05-19T00:05:41;98854.56;;;11.74;100.00
12879;BME280;20617;49.476;10.986;2023-05-19T00:07:50;98859.50;;;11.82;100.00
12879;BME280;20617;49.476;10.986;2023-05-19T00:09:56;98853.59;;;11.77;100.00
12879;BME280;20617;49.476;10.986;2023-05-19T00:12:02;98850.25;;;11.73;100.00
12879;BME280;20617;49.476;10.986;2023-05-19T00:14:08;98860.56;;;11.76;100.00
12879;BME280;20617;49.476;10.986;2023-05-19T00:16:14;98849.34;;;11.74;100.00
12879;BME280;20617;49.476;10.986;2023-05-19T00:18:19;98843.56;;;11.66;100.00
12879;BME280;20617;49.476;10.986;2023-05-19T00:20:27;98843.66;;;11.63;100.00
12879;BME280;20617;49.476;10.986;2023-05-19T00:22:32;98850.53;;;11.66;100.00
12879;BME280;20617;49.476;10.986;2023-05-19T00:24:37;98844.31;;;11.70;100.00
12879;BME280;20617;49.476;10.986;2023-05-19T00:26:42;98844.34;;;11.68;100.00
12879;BME280;20617;49.476;10.986;2023-05-19T00:28:48;98841.59;;;11.73;100.00
12879;BME280;20617;49.476;10.986;2023-05-19T00:30:53;98839.88;;;11.72;100.00
12879;BME280;20617;49.476;10.986;2023-05-19T00:32:58;98835.22;;;11.80;100.00
12879;BME280;20617;49.476;10.986;2023-05-19T00:35:06;98835.34;;;11.77;100.00
12879;BME280;20617;49.476;10.986;2023-05-19T00:37:14;98836.63;;;11.90;100.00
12879;BME280;20617;49.476;10.986;2023-05-19T00:39:19;98834.38;;;12.03;100.00
12879;BME280;20617;49.476;10.986;2023-05-19T00:41:24;98833.13;;;12.13;100.00
12879;BME280;20617;49.476;10.986;2023-05-19T00:43:29;98831.34;;;12.14;100.00
12879;BME280;20617;49.476;10.986;2023-05-19T00:45:35;98835.41;;;12.21;100.00
12879;BME280;20617;49.476;10.986;2023-05-19T00:47:40;98825.94;;;12.18;100.00
12879;BME280;20617;49.476;10.986;2023-05-19T00:49:45;98823.22;;;12.21;100.00
12879;BME280;20617;49.476;10.986;2023-05-19T00:51:50;98821.53;;;12.20;100.00
12879;BME280;20617;49.476;10.986;2023-05-19T00:53:57;98820.72;;;12.18;100.00
12879;BME280;20617;49.476;10.986;2023-05-19T00:56:03;98822.47;;;12.18;100.00
12879;BME280;20617;49.476;10.986;2023-05-19T00:58:09;98821.72;;;12.16;100.00
12879;BME280;20617;49.476;10.986;2023-05-19T01:00:15;98819.00;;;12.19;100.00
12879;BME280;20617;49.476;10.986;2023-05-19T01:02:20;98820.69;;;12.20;100.00
12879;BME280;20617;49.476;10.986;2023-05-19T01:04:25;98813.88;;;12.16;100.00
12879;BME280;20617;49.476;10.986;2023-05-19T01:06:30;98814.59;;;12.19;100.00
12879;BME280;20617;49.476;10.986;2023-05-19T01:08:37;98807.53;;;12.21;100.00
12879;BME280;20617;49.476;10.986;2023-05-19T01:10:44;98802.66;;;12.14;100.00
12879;BME280;20617;49.476;10.986;2023-05-19T01:12:49;98804.72;;;12.06;100.00
12879;BME280;20617;49.476;10.986;2023-05-19T01:14:54;98795.97;;;12.07;100.00
12879;BME280;20617;49.476;10.986;2023-05-19T01:17:05;98799.19;;;12.13;100.00
12879;BME280;20617;49.476;10.986;2023-05-19T01:19:29;98795.53;;;12.17;100.00
12879;BME280;20617;49.476;10.986;2023-05-19T01:22:01;98798.81;;;12.22;100.00
12879;BME280;20617;49.476;10.986;2023-05-19T01:27:10;98791.06;;;11.99;100.00
12879;BME280;20617;49.476;10.986;2023-05-19T01:29:36;98790.09;;;12.02;100.00
12879;BME280;20617;49.476;10.986;2023-05-19T01:31:47;98797.69;;;12.08;100.00
12879;BME280;20617;49.476;10.986;2023-05-19T01:33:53;98796.88;;;12.06;100.00
12879;BME280;20617;49.476;10.986;2023-05-19T01:35:59;98794.44;;;12.01;100.00
12879;BME280;20617;49.476;10.986;2023-05-19T01:38:07;98796.28;;;11.99;100.00
12879;BME280;20617;49.476;10.986;2023-05-19T01:40:14;98791.69;;;12.04;100.00
12879;BME280;20617;49.476;10.986;2023-05-19T01:42:20;98786.00;;;11.94;100.00
12879;BME280;20617;49.476;10.986;2023-05-19T01:44:26;98782.59;;;11.92;100.00
12879;BME280;20617;49.476;10.986;2023-05-19T01:46:32;98785.75;;;12.00;100.00
12879;BME280;20617;49.476;10.986;2023-05-19T01:48:40;98795.13;;;11.83;100.00
12879;BME280;20617;49.476;10.986;2023-05-19T01:50:47;98791.22;;;11.94;100.00
12879;BME280;20617;49.476;10.986;2023-05-19T01:52:53;98790.22;;;11.98;100.00
12879;BME280;20617;49.476;10.986;2023-05-19T01:54:58;98785.63;;;12.04;100.00
12879;BME280;20617;49.476;10.986;2023-05-19T01:57:09;98789.00;;;12.07;100.00
12879;BME280;20617;49.476;10.986;2023-05-19T01:59:25;98792.09;;;12.17;100.00
12879;BME280;20617;49.476;10.986;2023-05-19T02:01:37;98794.56;;;12.20;100.00
12879;BME280;20617;49.476;10.986;2023-05-19T02:03:59;98799.78;;;12.20;100.00
12879;BME280;20617;49.476;10.986;2023-05-19T02:06:17;98794.44;;;12.23;100.00
12879;BME280;20617;49.476;10.986;2023-05-19T02:08:32;98792.09;;;12.17;100.00
12879;BME280;20617;49.476;10.986;2023-05-19T02:10:40;98795.50;;;12.19;100.00
12879;BME280;20617;49.476;10.986;2023-05-19T02:12:52;98795.38;;;12.22;100.00
12879;BME280;20617;49.476;10.986;2023-05-19T02:15:03;98792.88;;;12.19;100.00
12879;BME280;20617;49.476;10.986;2023-05-19T02:17:10;98790.69;;;12.08;100.00
12879;BME280;20617;49.476;10.986;2023-05-19T02:19:24;98799.25;;;12.12;100.00
12879;BME280;20617;49.476;10.986;2023-05-19T02:21:29;98796.28;;;11.99;100.00
12879;BME280;20617;49.476;10.986;2023-05-19T02:23:35;98792.03;;;11.96;100.00
12879;BME280;20617;49.476;10.986;2023-05-19T02:25:39;98793.97;;;11.91;100.00
12879;BME280;20617;49.476;10.986;2023-05-19T02:27:44;98793.00;;;11.94;100.00
12879;BME280;20617;49.476;10.986;2023-05-19T02:29:49;98796.06;;;11.82;100.00
12879;BME280;20617;49.476;10.986;2023-05-19T02:31:55;98799.91;;;11.71;100.00
12879;BME280;20617;49.476;10.986;2023-05-19T02:34:00;98793.59;;;11.77;100.00
12879;BME280;20617;49.476;10.986;2023-05-19T02:36:07;98790.00;;;11.81;100.00
12879;BME280;20617;49.476;10.986;2023-05-19T02:38:15;98791.72;;;11.81;100.00
12879;BME280;20617;49.476;10.986;2023-05-19T02:40:20;98786.47;;;11.82;100.00
12879;BME280;20617;49.476;10.986;2023-05-19T02:42:26;98783.75;;;11.85;100.00
12879;BME280;20617;49.476;10.986;2023-05-19T02:44:31;98775.84;;;11.87;100.00
12879;BME280;20617;49.476;10.986;2023-05-19T02:46:36;98777.66;;;11.85;100.00
12879;BME280;20617;49.476;10.986;2023-05-19T02:48:41;98776.63;;;11.90;100.00
12879;BME280;20617;49.476;10.986;2023-05-19T02:50:46;98770.44;;;11.93;100.00
12879;BME280;20617;49.476;10.986;2023-05-19T02:52:53;98762.66;;;11.91;100.00
12879;BME280;20617;49.476;10.986;2023-05-19T02:54:59;98768.91;;;11.87;100.00
12879;BME280;20617;49.476;10.986;2023-05-19T02:57:04;98765.34;;;11.90;100.00
12879;BME280;20617;49.476;10.986;2023-05-19T02:59:09;98761.69;;;11.94;100.00
12879;BME280;20617;49.476;10.986;2023-05-19T03:01:14;98765.69;;;12.03;100.00
12879;BME280;20617;49.476;10.986;2023-05-19T03:03:19;98763.13;;;12.01;100.00
12879;BME280;20617;49.476;10.986;2023-05-19T03:05:24;98768.41;;;11.99;100.00
12879;BME280;20617;49.476;10.986;2023-05-19T03:07:29;98765.81;;;11.99;100.00
12879;BME280;20617;49.476;10.986;2023-05-19T03:09:37;98761.69;;;11.94;100.00
12879;BME280;20617;49.476;10.986;2023-05-19T03:11:42;98764.34;;;11.92;100.00
12879;BME280;20617;49.476;10.986;2023-05-19T03:13:47;98767.75;;;11.94;100.00
12879;BME280;20617;49.476;10.986;2023-05-19T03:15:52;98766.06;;;11.93;100.00
12879;BME280;20617;49.476;10.986;2023-05-19T03:17:58;98767.41;;;11.80;100.00
12879;BME280;20617;49.476;10.986;2023-05-19T03:20:05;98772.41;;;11.86;100.00
12879;BME280;20617;49.476;10.986;2023-05-19T03:22:11;98767.34;;;11.82;100.00
12879;BME280;20617;49.476;10.986;2023-05-19T03:24:16;98762.03;;;11.85;100.00
12879;BME280;20617;49.476;10.986;2023-05-19T03:26:24;98767.25;;;11.85;100.00
12879;BME280;20617;49.476;10.986;2023-05-19T03:28:31;98773.25;;;11.87;100.00
12879;BME280;20617;49.476;10.986;2023-05-19T03:30:36;98777.00;;;11.79;100.00
12879;BME280;20617;49.476;10.986;2023-05-19T03:32:53;98779.44;;;11.84;100.00
12879;BME280;20617;49.476;10.986;2023-05-19T03:34:58;98779.22;;;11.90;100.00
12879;BME280;20617;49.476;10.986;2023-05-19T03:37:03;98773.56;;;12.01;100.00
12879;BME280;20617;49.476;10.986;2023-05-19T03:39:11;98772.47;;;12.07;100.00
12879;BME280;20617;49.476;10.986;2023-05-19T03:41:17;98769.88;;;12.07;100.00
12879;BME280;20617;49.476;10.986;2023-05-19T03:43:25;98772.19;;;12.14;100.00
12879;BME280;20617;49.476;10.986;2023-05-19T03:45:34;98779.03;;;12.17;100.00
12879;BME280;20617;49.476;10.986;2023-05-19T03:47:57;98780.25;;;12.08;100.00
12879;BME280;20617;49.476;10.986;2023-05-19T03:50:28;98779.16;;;12.14;100.00
12879;BME280;20617;49.476;10.986;2023-05-19T03:52:45;98786.31;;;12.09;100.00
12879;BME280;20617;49.476;10.986;2023-05-19T03:55:01;98778.38;;;12.12;100.00
12879;BME280;20617;49.476;10.986;2023-05-19T03:57:06;98784.50;;;12.11;100.00
12879;BME280;20617;49.476;10.986;2023-05-19T03:59:14;98791.16;;;12.18;100.00
12879;BME280;20617;49.476;10.986;2023-05-19T04:01:19;98791.16;;;12.18;100.00
12879;BME280;20617;49.476;10.986;2023-05-19T04:03:25;98792.81;;;12.20;100.00
12879;BME280;20617;49.476;10.986;2023-05-19T04:05:30;98798.09;;;12.19;100.00
12879;BME280;20617;49.476;10.986;2023-05-19T04:07:35;98796.34;;;12.19;100.00
12879;BME280;20617;49.476;10.986;2023-05-19T04:09:40;98800.16;;;12.11;100.00
12879;BME280;20617;49.476;10.986;2023-05-19T04:11:46;98795.97;;;12.07;100.00
12879;BME280;20617;49.476;10.986;2023-05-19T04:13:51;98799.38;;;12.09;100.00
12879;BME280;20617;49.476;10.986;2023-05-19T04:15:59;98792.09;;;12.17;100.00
12879;BME280;20617;49.476;10.986;2023-05-19T04:18:04;98793.72;;;12.19;100.00
12879;BME280;20617;49.476;10.986;2023-05-19T04:20:11;98796.13;;;12.24;100.00
12879;BME280;20617;49.476;10.986;2023-05-19T04:22:16;98790.78;;;12.27;100.00
12879;BME280;20617;49.476;10.986;2023-05-19T04:24:21;98790.91;;;12.24;100.00
12879;BME280;20617;49.476;10.986;2023-05-19T04:26:27;98791.59;;;12.29;100.00
12879;BME280;20617;49.476;10.986;2023-05-19T04:28:36;98796.63;;;12.34;100.00
12879;BME280;20617;49.476;10.986;2023-05-19T04:30:43;98795.47;;;12.41;100.00
12879;BME280;20617;49.476;10.986;2023-05-19T04:32:51;98796.84;;;12.50;100.00
12879;BME280;20617;49.476;10.986;2023-05-19T04:34:59;98796.84;;;12.50;100.00
12879;BME280;20617;49.476;10.986;2023-05-19T04:37:08;98800.00;;;12.58;100.00
12879;BME280;20617;49.476;10.986;2023-05-19T04:39:15;98798.19;;;12.60;100.00
12879;BME280;20617;49.476;10.986;2023-05-19T04:41:20;98794.47;;;12.65;100.00
12879;BME280;20617;49.476;10.986;2023-05-19T04:43:25;98798.75;;;12.66;100.00
12879;BME280;20617;49.476;10.986;2023-05-19T04:45:33;98794.34;;;12.68;100.00
12879;BME280;20617;49.476;10.986;2023-05-19T04:47:39;98800.28;;;12.72;100.00
12879;BME280;20617;49.476;10.986;2023-05-19T04:49:48;98795.56;;;12.80;100.00
12879;BME280;20617;49.476;10.986;2023-05-19T04:51:56;98793.66;;;12.84;100.00
12879;BME280;20617;49.476;10.986;2023-05-19T04:54:04;98803.28;;;12.83;100.00
12879;BME280;20617;49.476;10.986;2023-05-19T04:56:09;98795.31;;;12.86;100.00
12879;BME280;20617;49.476;10.986;2023-05-19T04:58:17;98791.91;;;12.84;100.00
12879;BME280;20617;49.476;10.986;2023-05-19T05:00:23;98800.41;;;12.89;100.00
12879;BME280;20617;49.476;10.986;2023-05-19T05:02:37;98800.41;;;12.89;100.00
12879;BME280;20617;49.476;10.986;2023-05-19T05:04:43;98799.56;;;12.89;100.00
12879;BME280;20617;49.476;10.986;2023-05-19T05:06:51;98805.50;;;12.93;100.00
12879;BME280;20617;49.476;10.986;2023-05-19T05:08:59;98797.78;;;12.89;100.00
12879;BME280;20617;49.476;10.986;2023-05-19T05:11:06;98794.84;;;12.77;100.00
12879;BME280;20617;49.476;10.986;2023-05-19T05:13:12;98795.84;;;12.74;100.00
12879;BME280;20617;49.476;10.986;2023-05-19T05:15:21;98796.69;;;12.75;100.00
12879;BME280;20617;49.476;10.986;2023-05-19T05:17:32;98794.97;;;12.74;100.00
12879;BME280;20617;49.476;10.986;2023-05-19T05:19:39;98790.22;;;12.63;100.00
12879;BME280;20617;49.476;10.986;2023-05-19T05:21:46;98792.63;;;12.67;100.00
12879;BME280;20617;49.476;10.986;2023-05-19T05:23:56;98795.84;;;12.74;100.00
12879;BME280;20617;49.476;10.986;2023-05-19T05:26:09;98799.09;;;12.79;100.00
12879;BME280;20617;49.476;10.986;2023-05-19T05:28:22;98786.09;;;12.78;100.00
12879;BME280;20617;49.476;10.986;2023-05-19T05:30:28;98784.34;;;12.78;100.00
12879;BME280;20617;49.476;10.986;2023-05-19T05:32:33;98777.03;;;12.66;100.00
12879;BME280;20617;49.476;10.986;2023-05-19T05:34:44;98776.94;;;12.67;100.00
12879;BME280;20617;49.476;10.986;2023-05-19T05:36:49;98782.16;;;12.67;100.00
12879;BME280;20617;49.476;10.986;2023-05-19T05:39:00;98778.53;;;12.72;100.00
12879;BME280;20617;49.476;10.986;2023-05-19T05:41:07;98781.72;;;12.78;100.00
12879;BME280;20617;49.476;10.986;2023-05-19T05:43:12;98776.03;;;12.89;100.00
12879;BME280;20617;49.476;10.986;2023-05-19T05:45:22;98775.69;;;12.97;100.00
12879;BME280;20617;49.476;10.986;2023-05-19T05:47:29;98782.00;;;13.11;100.00
12879;BME280;20617;49.476;10.986;2023-05-19T05:49:34;98780.97;;;13.16;100.00
12879;BME280;20617;49.476;10.986;2023-05-19T05:51:42;98787.50;;;13.26;100.00
12879;BME280;20617;49.476;10.986;2023-05-19T05:54:11;98776.25;;;13.44;100.00
12879;BME280;20617;49.476;10.986;2023-05-19T05:56:20;98779.34;;;13.52;100.00
12879;BME280;20617;49.476;10.986;2023-05-19T05:58:28;98784.44;;;13.55;100.00
12879;BME280;20617;49.476;10.986;2023-05-19T06:00:34;98779.91;;;13.40;100.00
12879;BME280;20617;49.476;10.986;2023-05-19T06:02:43;98779.63;;;13.46;100.00
12879;BME280;20617;49.476;10.986;2023-05-19T06:04:52;98781.31;;;13.28;100.00
12879;BME280;20617;49.476;10.986;2023-05-19T06:06:58;98785.41;;;13.34;100.00
12879;BME280;20617;49.476;10.986;2023-05-19T06:09:10;98788.31;;;13.28;100.00
12879;BME280;20617;49.476;10.986;2023-05-19T06:11:17;98790.19;;;13.24;100.00
12879;BME280;20617;49.476;10.986;2023-05-19T06:13:30;98781.81;;;13.36;100.00
12879;BME280;20617;49.476;10.986;2023-05-19T06:15:38;98782.31;;;13.45;100.00
12879;BME280;20617;49.476;10.986;2023-05-19T06:18:00;98778.22;;;13.58;100.00
12879;BME280;20617;49.476;10.986;2023-05-19T06:20:06;98779.34;;;13.71;100.00
12879;BME280;20617;49.476;10.986;2023-05-19T06:22:14;98777.72;;;13.69;100.00
12879;BME280;20617;49.476;10.986;2023-05-19T06:24:21;98775.75;;;13.74;100.00
12879;BME280;20617;49.476;10.986;2023-05-19T06:26:26;98774.66;;;13.78;100.00
12879;BME280;20617;49.476;10.986;2023-05-19T06:28:31;98773.41;;;13.87;100.00
12879;BME280;20617;49.476;10.986;2023-05-19T06:30:36;98768.34;;;14.01;100.00
12879;BME280;20617;49.476;10.986;2023-05-19T06:33:13;98767.56;;;13.99;100.00
12879;BME280;20617;49.476;10.986;2023-05-19T06:35:18;98771.31;;;14.12;100.00
12879;BME280;20617;49.476;10.986;2023-05-19T06:37:23;98769.59;;;13.94;100.00
12879;BME280;20617;49.476;10.986;2023-05-19T06:39:32;98774.03;;;13.92;100.00
12879;BME280;20617;49.476;10.986;2023-05-19T06:41:39;98776.22;;;14.01;100.00
12879;BME280;20617;49.476;10.986;2023-05-19T06:43:59;98769.66;;;14.29;100.00
12879;BME280;20617;49.476;10.986;2023-05-19T06:46:07;98779.66;;;14.38;100.00
12879;BME280;20617;49.476;10.986;2023-05-19T06:48:14;98777.59;;;14.44;100.00
12879;BME280;20617;49.476;10.986;2023-05-19T06:50:19;98775.34;;;14.37;100.00
12879;BME280;20617;49.476;10.986;2023-05-19T06:52:24;98776.81;;;14.42;100.00
12879;BME280;20617;49.476;10.986;2023-05-19T06:54:33;98774.53;;;14.54;100.00
12879;BME280;20617;49.476;10.986;2023-05-19T06:56:39;98773.06;;;14.65;100.00
12879;BME280;20617;49.476;10.986;2023-05-19T06:58:44;98769.69;;;14.81;100.00
12879;BME280;20617;49.476;10.986;2023-05-19T07:00:50;98762.88;;;14.94;100.00
12879;BME280;20617;49.476;10.986;2023-05-19T07:02:56;98771.97;;;15.04;100.00
12879;BME280;20617;49.476;10.986;2023-05-19T07:05:02;98773.78;;;15.20;100.00
12879;BME280;20617;49.476;10.986;2023-05-19T07:07:08;98773.69;;;15.21;100.00
12879;BME280;20617;49.476;10.986;2023-05-19T07:09:13;98769.06;;;15.26;100.00
12879;BME280;20617;49.476;10.986;2023-05-19T07:11:22;98764.66;;;15.27;100.00
12879;BME280;20617;49.476;10.986;2023-05-19T07:13:28;98762.47;;;15.35;100.00
12879;BME280;20617;49.476;10.986;2023-05-19T07:15:33;98767.16;;;15.46;100.00
12879;BME280;20617;49.476;10.986;2023-05-19T07:17:39;98752.19;;;15.48;100.00
12879;BME280;20617;49.476;10.986;2023-05-19T07:19:47;98758.09;;;15.67;100.00
12879;BME280;20617;49.476;10.986;2023-05-19T07:21:52;98751.19;;;15.82;100.00
12879;BME280;20617;49.476;10.986;2023-05-19T07:24:00;98744.03;;;15.86;100.00
12879;BME280;20617;49.476;10.986;2023-05-19T07:26:05;98743.09;;;15.71;100.00
12879;BME280;20617;49.476;10.986;2023-05-19T07:28:13;98749.69;;;15.78;100.00
12879;BME280;20617;49.476;10.986;2023-05-19T07:30:18;98741.47;;;15.84;100.00
12879;BME280;20617;49.476;10.986;2023-05-19T07:32:23;98738.50;;;15.90;100.00
12879;BME280;20617;49.476;10.986;2023-05-19T07:34:28;98731.56;;;15.89;100.00
12879;BME280;20617;49.476;10.986;2023-05-19T07:36:33;98733.75;;;15.81;100.00
12879;BME280;20617;49.476;10.986;2023-05-19T07:38:38;98729.19;;;15.84;100.00
12879;BME280;20617;49.476;10.986;2023-05-19T07:40:43;98730.81;;;15.71;100.00
12879;BME280;20617;49.476;10.986;2023-05-19T07:42:49;98736.47;;;15.79;100.00
12879;BME280;20617;49.476;10.986;2023-05-19T07:44:56;98735.09;;;15.88;100.00
12879;BME280;20617;49.476;10.986;2023-05-19T07:47:02;98731.81;;;16.00;100.00
12879;BME280;20617;49.476;10.986;2023-05-19T07:49:07;98726.34;;;16.19;100.00
12879;BME280;20617;49.476;10.986;2023-05-19T07:51:15;98725.72;;;16.30;100.00
12879;BME280;20617;49.476;10.986;2023-05-19T07:53:20;98731.34;;;16.24;100.00
12879;BME280;20617;49.476;10.986;2023-05-19T07:55:25;98729.91;;;16.02;100.00
12879;BME280;20617;49.476;10.986;2023-05-19T07:57:30;98732.47;;;16.04;100.00
12879;BME280;20617;49.476;10.986;2023-05-19T07:59:37;98733.72;;;16.13;100.00
12879;BME280;20617;49.476;10.986;2023-05-19T08:01:45;98735.75;;;16.23;100.00
12879;BME280;20617;49.476;10.986;2023-05-19T08:03:50;98729.06;;;16.18;100.00
12879;BME280;20617;49.476;10.986;2023-05-19T08:05:55;98725.13;;;16.25;100.00
12879;BME280;20617;49.476;10.986;2023-05-19T08:08:00;98717.06;;;16.28;100.00
12879;BME280;20617;49.476;10.986;2023-05-19T08:10:05;98723.28;;;16.27;100.00
12879;BME280;20617;49.476;10.986;2023-05-19T08:12:10;98730.03;;;16.31;100.00
12879;BME280;20617;49.476;10.986;2023-05-19T08:14:16;98717.31;;;16.39;100.00
12879;BME280;20617;49.476;10.986;2023-05-19T08:16:23;98721.63;;;16.40;100.00
12879;BME280;20617;49.476;10.986;2023-05-19T08:18:31;98720.19;;;16.35;100.00
12879;BME280;20617;49.476;10.986;2023-05-19T08:20:38;98717.22;;;16.41;100.00
12879;BME280;20617;49.476;10.986;2023-05-19T08:22:43;98718.94;;;16.56;100.00
12879;BME280;20617;49.476;10.986;2023-05-19T08:24:48;98713.91;;;16.67;100.00
12879;BME280;20617;49.476;10.986;2023-05-19T08:26:53;98713.00;;;16.83;99.31
12879;BME280;20617;49.476;10.986;2023-05-19T08:28:58;98721.53;;;16.86;98.88
12879;BME280;20617;49.476;10.986;2023-05-19T08:31:03;98711.69;;;16.90;99.16
12879;BME280;20617;49.476;10.986;2023-05-19T08:33:11;98711.13;;;16.85;98.69
12879;BME280;20617;49.476;10.986;2023-05-19T08:35:18;98706.25;;;16.79;98.15
12879;BME280;20617;49.476;10.986;2023-05-19T08:37:23;98712.53;;;16.76;98.36
12879;BME280;20617;49.476;10.986;2023-05-19T08:39:28;98710.56;;;16.80;98.36
12879;BME280;20617;49.476;10.986;2023-05-19T08:41:35;98710.56;;;16.94;97.95
12879;BME280;20617;49.476;10.986;2023-05-19T08:43:40;98708.13;;;16.91;97.47
12879;BME280;20617;49.476;10.986;2023-05-19T08:45:46;98695.81;;;17.06;96.98
12879;BME280;20617;49.476;10.986;2023-05-19T08:47:51;98698.44;;;17.20;96.44
12879;BME280;20617;49.476;10.986;2023-05-19T08:50:01;98690.19;;;17.12;96.54
12879;BME280;20617;49.476;10.986;2023-05-19T08:52:16;98689.81;;;17.18;96.82
12879;BME280;20617;49.476;10.986;2023-05-19T08:54:28;98690.38;;;17.09;96.44
12879;BME280;20617;49.476;10.986;2023-05-19T08:56:34;98689.81;;;17.04;96.95
12879;BME280;20617;49.476;10.986;2023-05-19T08:58:44;98690.38;;;17.09;97.38
12879;BME280;20617;49.476;10.986;2023-05-19T09:00:50;98690.94;;;16.85;97.51
12879;BME280;20617;49.476;10.986;2023-05-19T09:02:58;98689.63;;;16.92;98.12
12879;BME280;20617;49.476;10.986;2023-05-19T09:05:19;98691.13;;;16.96;97.40
12879;BME280;20617;49.476;10.986;2023-05-19T09:07:30;98686.97;;;17.07;97.67
12879;BME280;20617;49.476;10.986;2023-05-19T09:09:36;98681.19;;;17.02;96.00
12879;BME280;20617;49.476;10.986;2023-05-19T09:11:45;98683.13;;;16.98;95.56
12879;BME280;20617;49.476;10.986;2023-05-19T09:13:50;98691.88;;;16.98;96.02
12879;BME280;20617;49.476;10.986;2023-05-19T09:15:58;98691.00;;;17.27;96.45
12879;BME280;20617;49.476;10.986;2023-05-19T09:18:08;98682.84;;;17.31;94.75
12879;BME280;20617;49.476;10.986;2023-05-19T09:20:15;98687.53;;;17.26;95.02
12879;BME280;20617;49.476;10.986;2023-05-19T09:22:21;98693.19;;;17.34;94.32
12879;BME280;20617;49.476;10.986;2023-05-19T09:24:30;98693.91;;;17.36;94.17
12879;BME280;20617;49.476;10.986;2023-05-19T09:26:36;98696.91;;;17.45;94.22
12879;BME280;20617;49.476;10.986;2023-05-19T09:28:42;98685.66;;;17.28;94.32
12879;BME280;20617;49.476;10.986;2023-05-19T09:31:01;98694.09;;;17.33;94.79
12879;BME280;20617;49.476;10.986;2023-05-19T09:33:06;98689.31;;;17.40;95.29
12879;BME280;20617;49.476;10.986;2023-05-19T09:35:12;98691.41;;;17.62;94.46
12879;BME280;20617;49.476;10.986;2023-05-19T09:37:21;98691.22;;;17.65;93.03
12879;BME280;20617;49.476;10.986;2023-05-19T09:39:26;98689.34;;;17.67;92.38
12879;BME280;20617;49.476;10.986;2023-05-19T09:41:36;98684.91;;;17.82;92.01
12879;BME280;20617;49.476;10.986;2023-05-19T09:43:41;98688.50;;;17.81;92.00
12879;BME280;20617;49.476;10.986;2023-05-19T09:45:46;98683.78;;;17.86;91.51
12879;BME280;20617;49.476;10.986;2023-05-19T09:47:51;98687.72;;;17.79;91.52
12879;BME280;20617;49.476;10.986;2023-05-19T09:49:57;98688.19;;;17.71;92.20
12879;BME280;20617;49.476;10.986;2023-05-19T09:52:02;98683.81;;;17.57;93.11
12879;BME280;20617;49.476;10.986;2023-05-19T09:54:07;98684.56;;;17.59;92.46
12879;BME280;20617;49.476;10.986;2023-05-19T09:56:13;98683.88;;;17.70;92.91
12879;BME280;20617;49.476;10.986;2023-05-19T09:58:21;98684.69;;;17.85;92.16
12879;BME280;20617;49.476;10.986;2023-05-19T10:00:28;98679.50;;;17.98;90.56
12879;BME280;20617;49.476;10.986;2023-05-19T10:02:35;98680.84;;;18.03;90.20
12879;BME280;20617;49.476;10.986;2023-05-19T10:04:41;98671.47;;;17.99;89.25
12879;BME280;20617;49.476;10.986;2023-05-19T10:06:48;98662.94;;;17.96;89.01
12879;BME280;20617;49.476;10.986;2023-05-19T10:08:55;98667.09;;;18.13;89.48
12879;BME280;20617;49.476;10.986;2023-05-19T10:11:04;98651.72;;;18.19;88.00
12879;BME280;20617;49.476;10.986;2023-05-19T10:13:09;98658.38;;;18.38;87.24
12879;BME280;20617;49.476;10.986;2023-05-19T10:15:18;98657.56;;;18.63;85.20
12879;BME280;20617;49.476;10.986;2023-05-19T10:17:29;98648.31;;;18.83;83.56
12879;BME280;20617;49.476;10.986;2023-05-19T10:19:46;98653.13;;;18.76;82.76
12879;BME280;20617;49.476;10.986;2023-05-19T10:21:59;98644.91;;;18.81;81.24
12879;BME280;20617;49.476;10.986;2023-05-19T10:24:04;98642.69;;;18.87;81.65
12879;BME280;20617;49.476;10.986;2023-05-19T10:26:12;98633.06;;;18.99;81.59
12879;BME280;20617;49.476;10.986;2023-05-19T10:28:18;98622.81;;;19.07;81.37
12879;BME280;20617;49.476;10.986;2023-05-19T10:30:32;98620.09;;;19.09;80.90
12879;BME280;20617;49.476;10.986;2023-05-19T10:32:39;98624.88;;;19.28;81.41
12879;BME280;20617;49.476;10.986;2023-05-19T10:35:11;98620.81;;;19.48;79.24
12879;BME280;20617;49.476;10.986;2023-05-19T10:37:27;98617.47;;;19.33;76.15
12879;BME280;20617;49.476;10.986;2023-05-19T10:39:35;98615.31;;;19.14;77.25
12879;BME280;20617;49.476;10.986;2023-05-19T10:41:46;98610.91;;;19.02;80.71
12879;BME280;20617;49.476;10.986;2023-05-19T10:44:00;98614.59;;;18.99;81.31
12879;BME280;20617;49.476;10.986;2023-05-19T10:46:12;98612.41;;;18.93;80.61
12879;BME280;20617;49.476;10.986;2023-05-19T10:48:19;98617.25;;;18.99;80.68
12879;BME280;20617;49.476;10.986;2023-05-19T10:50:25;98615.78;;;18.95;81.12
12879;BME280;20617;49.476;10.986;2023-05-19T10:52:30;98614.31;;;18.91;81.12
12879;BME280;20617;49.476;10.986;2023-05-19T10:54:38;98611.34;;;18.95;82.02
12879;BME280;20617;49.476;10.986;2023-05-19T10:56:46;98612.84;;;18.99;81.93
12879;BME280;20617;49.476;10.986;2023-05-19T10:58:55;98608.72;;;19.32;79.48
12879;BME280;20617;49.476;10.986;2023-05-19T11:01:01;98610.78;;;19.40;77.44
12879;BME280;20617;49.476;10.986;2023-05-19T11:03:16;98617.72;;;19.54;75.23
12879;BME280;20617;49.476;10.986;2023-05-19T11:05:28;98616.81;;;19.42;73.79